Terminal Aerodrome Forecast
Issued by NWS

Current Version | Previous Version | Text Only | Print | Product List | Glossary On
Versions: 1 2 3 4 5 6 7 8 9 10 11 12 13 14 15 16 17 18 19 20 21 22
000
FTUS42 KJAX 041837 AAA
TAFCRG
TAF AMD
KCRG 041837Z 0419/0518 12010KT P6SM VCTS SCT040CB BKN250
      TEMPO 0419/0420 VRB15G25KT 3SM TSRA BKN030CB
     FM042000 15008KT P6SM VCTS SCT050CB BKN150
     FM050000 18006KT P6SM VCSH SCT050 BKN120
     FM050200 19004KT P6SM FEW050 SCT120 BKN200
     FM051700 25006KT P6SM VCTS SCT040CB BKN200=

USA.gov is the U.S. government's official web portal to all federal, state and local government web resources and services.